createdAt,value
2022-12-18T00:02:01.132Z,12.40
2022-12-18T00:04:29.168Z,10.70
2022-12-18T00:06:56.645Z,9.87
2022-12-18T00:09:24.808Z,10.53
2022-12-18T00:11:52.548Z,12.60
2022-12-18T00:14:21.328Z,13.27
2022-12-18T00:16:48.771Z,13.70
2022-12-18T00:19:16.553Z,12.43
2022-12-18T00:21:44.447Z,11.73
2022-12-18T00:24:12.365Z,15.03
2022-12-18T00:26:40.607Z,13.47
2022-12-18T00:29:09.125Z,11.17
2022-12-18T00:31:39.034Z,13.70
2022-12-18T00:34:06.543Z,9.90
2022-12-18T00:36:35.560Z,10.33
2022-12-18T00:39:04.299Z,11.40
2022-12-18T00:41:49.030Z,12.40
2022-12-18T00:44:17.545Z,11.33
2022-12-18T00:46:46.752Z,12.20
2022-12-18T00:49:14.216Z,14.30
2022-12-18T00:51:41.714Z,13.83
2022-12-18T00:54:09.130Z,15.20
2022-12-18T00:56:39.364Z,16.40
2022-12-18T00:59:13.244Z,14.57
2022-12-18T01:01:40.791Z,15.50
2022-12-18T01:04:09.755Z,10.80
2022-12-18T01:06:37.169Z,9.70
2022-12-18T01:09:04.981Z,12.50
2022-12-18T01:11:32.788Z,10.07
2022-12-18T01:14:03.241Z,10.50
2022-12-18T01:16:30.843Z,12.30
2022-12-18T01:18:58.613Z,11.13
2022-12-18T01:21:27.438Z,12.33
2022-12-18T01:23:55.393Z,11.30
2022-12-18T01:26:23.378Z,9.23
2022-12-18T01:28:50.791Z,9.30
2022-12-18T01:31:19.760Z,11.07
2022-12-18T01:33:49.949Z,10.10
2022-12-18T01:36:18.551Z,9.37
2022-12-18T01:38:47.626Z,10.00
2022-12-18T01:41:15.452Z,9.50
2022-12-18T01:43:47.594Z,13.67
2022-12-18T01:46:15.833Z,10.77
2022-12-18T01:48:43.326Z,10.20
2022-12-18T01:51:12.213Z,10.87
2022-12-18T01:53:41.195Z,11.57
2022-12-18T01:56:11.113Z,8.83
2022-12-18T01:58:41.425Z,11.57
2022-12-18T02:01:09.032Z,11.33
2022-12-18T02:03:36.857Z,11.77
2022-12-18T02:06:08.853Z,11.53
2022-12-18T02:08:39.641Z,8.57
2022-12-18T02:11:09.148Z,10.40
2022-12-18T02:13:42.638Z,10.93
2022-12-18T02:16:15.936Z,13.03
2022-12-18T02:18:45.178Z,9.73
2022-12-18T02:21:21.172Z,12.50
2022-12-18T02:23:53.300Z,11.43
2022-12-18T02:26:23.967Z,10.20
2022-12-18T02:28:53.722Z,10.80
2022-12-18T02:31:26.313Z,9.63
2022-12-18T02:33:54.409Z,9.90
2022-12-18T02:36:22.645Z,11.67
2022-12-18T02:38:51.107Z,9.13
2022-12-18T02:41:18.656Z,7.57
2022-12-18T02:43:52.435Z,8.17
2022-12-18T02:46:27.374Z,10.33
2022-12-18T02:48:57.285Z,8.77
2022-12-18T02:51:31.117Z,8.37
2022-12-18T02:54:01.028Z,12.93
2022-12-18T02:56:31.090Z,10.47
2022-12-18T02:59:01.870Z,8.50
2022-12-18T03:01:32.872Z,9.30
2022-12-18T03:04:03.661Z,9.60
2022-12-18T03:06:32.053Z,11.33
2022-12-18T03:09:01.184Z,9.27
2022-12-18T03:11:44.618Z,9.60
2022-12-18T03:14:15.039Z,7.80
2022-12-18T03:16:43.331Z,9.03
2022-12-18T03:19:13.769Z,10.43
2022-12-18T03:21:44.492Z,10.50
2022-12-18T03:24:13.113Z,8.77
2022-12-18T03:26:42.805Z,8.57
2022-12-18T03:29:12.195Z,8.70
2022-12-18T03:31:42.418Z,9.00
2022-12-18T03:34:12.297Z,7.90
2022-12-18T03:36:39.667Z,8.50
2022-12-18T03:39:07.158Z,6.83
2022-12-18T03:41:36.621Z,8.27
2022-12-18T03:44:09.868Z,8.43
2022-12-18T03:46:43.014Z,7.10
2022-12-18T03:49:13.492Z,6.87
2022-12-18T03:51:43.772Z,8.07
2022-12-18T03:54:12.044Z,6.97
2022-12-18T03:56:41.149Z,6.70
2022-12-18T03:59:09.530Z,7.03
2022-12-18T04:01:39.418Z,9.33
2022-12-18T04:04:07.636Z,8.17
2022-12-18T04:06:36.934Z,7.43
2022-12-18T04:09:04.983Z,8.10
2022-12-18T04:11:32.428Z,7.73
2022-12-18T04:14:02.664Z,7.00
2022-12-18T04:16:32.240Z,7.87
2022-12-18T04:19:00.153Z,8.40
2022-12-18T04:21:27.812Z,9.10
2022-12-18T04:23:56.650Z,6.50
2022-12-18T04:26:24.081Z,6.87
2022-12-18T04:28:51.508Z,7.50
2022-12-18T04:31:19.361Z,8.20
2022-12-18T04:33:46.817Z,7.17
2022-12-18T04:36:14.433Z,8.73
2022-12-18T04:38:41.972Z,6.77
2022-12-18T04:41:10.943Z,8.30
2022-12-18T04:43:38.683Z,7.60
2022-12-18T04:46:06.925Z,8.30
2022-12-18T04:48:34.790Z,7.37
2022-12-18T04:51:02.372Z,8.27
2022-12-18T04:53:30.229Z,8.60
2022-12-18T04:56:04.724Z,9.83
2022-12-18T04:58:33.552Z,10.67
2022-12-18T05:01:00.954Z,7.60
2022-12-18T05:03:28.554Z,7.80
2022-12-18T05:05:56.017Z,8.63
2022-12-18T05:08:23.703Z,7.70
2022-12-18T05:10:51.144Z,10.70
2022-12-18T05:13:18.600Z,6.70
2022-12-18T05:15:53.251Z,8.60
2022-12-18T05:18:20.829Z,8.40
2022-12-18T05:20:48.349Z,7.97
2022-12-18T05:23:15.889Z,8.03
2022-12-18T05:25:43.254Z,10.70
2022-12-18T05:28:11.326Z,10.90
2022-12-18T05:30:38.767Z,9.53
2022-12-18T05:33:07.733Z,8.87
2022-12-18T05:35:35.185Z,9.80
2022-12-18T05:38:02.653Z,9.33
2022-12-18T05:40:30.078Z,9.67
2022-12-18T05:42:58.502Z,7.80
2022-12-18T05:45:25.872Z,9.00
2022-12-18T05:47:53.266Z,8.97
2022-12-18T05:50:22.803Z,8.97
2022-12-18T05:52:50.242Z,8.50
2022-12-18T05:55:17.731Z,9.10
2022-12-18T05:57:45.167Z,9.87
2022-12-18T06:00:14.067Z,11.17
2022-12-18T06:02:41.901Z,8.80
2022-12-18T06:05:10.036Z,9.83
2022-12-18T06:07:38.881Z,9.23
2022-12-18T06:10:06.850Z,8.70
2022-12-18T06:12:34.764Z,7.97
2022-12-18T06:15:02.420Z,9.27
2022-12-18T06:17:30.874Z,9.30
2022-12-18T06:19:58.371Z,10.00
2022-12-18T06:22:25.845Z,10.17
2022-12-18T06:24:54.924Z,9.53
2022-12-18T06:27:22.410Z,7.83
2022-12-18T06:29:49.820Z,8.63
2022-12-18T06:32:17.709Z,9.93
2022-12-18T06:34:45.215Z,8.63
2022-12-18T06:37:12.786Z,8.70
2022-12-18T06:39:40.482Z,9.10
2022-12-18T06:42:09.336Z,9.40
2022-12-18T06:44:36.789Z,9.17
2022-12-18T06:47:04.147Z,9.77
2022-12-18T06:49:33.560Z,12.27
2022-12-18T06:52:01.054Z,10.67
2022-12-18T06:54:28.502Z,11.10
2022-12-18T06:56:58.897Z,10.37
2022-12-18T06:59:27.674Z,16.30
2022-12-18T07:01:55.702Z,18.57
2022-12-18T07:04:23.170Z,13.57
2022-12-18T07:06:50.624Z,11.93
2022-12-18T07:09:18.062Z,12.57
2022-12-18T07:11:45.651Z,9.67
2022-12-18T07:14:13.098Z,10.30
2022-12-18T07:16:41.957Z,10.60
2022-12-18T07:19:09.521Z,8.07
2022-12-18T07:21:37.017Z,9.13
2022-12-18T07:24:04.699Z,10.20
2022-12-18T07:26:32.151Z,9.20
2022-12-18T07:28:59.719Z,12.87
2022-12-18T07:31:27.977Z,12.17
2022-12-18T07:33:57.003Z,12.30
2022-12-18T07:36:24.433Z,9.43
2022-12-18T07:38:52.896Z,12.00
2022-12-18T07:41:20.613Z,9.70
2022-12-18T07:43:48.470Z,10.43
2022-12-18T07:46:16.543Z,11.67
2022-12-18T07:48:44.785Z,10.87
2022-12-18T07:51:18.813Z,9.77
2022-12-18T07:53:46.380Z,10.20
2022-12-18T07:56:32.135Z,9.37
2022-12-18T07:59:00.199Z,10.90
2022-12-18T08:01:28.121Z,12.57
2022-12-18T08:03:55.861Z,10.80
2022-12-18T08:06:24.932Z,10.87
2022-12-18T08:08:52.934Z,10.37
2022-12-18T08:11:20.434Z,9.23
2022-12-18T08:13:49.148Z,11.43
2022-12-18T08:16:16.988Z,11.00
2022-12-18T08:18:44.585Z,13.03
2022-12-18T08:21:12.744Z,10.13
2022-12-18T08:23:43.281Z,12.07
2022-12-18T08:26:11.529Z,10.53
2022-12-18T08:28:39.002Z,12.07
2022-12-18T08:31:06.668Z,11.23
2022-12-18T08:33:34.241Z,11.93
2022-12-18T08:36:02.278Z,12.40
2022-12-18T08:38:29.940Z,9.77
2022-12-18T08:41:02.044Z,12.23
2022-12-18T08:43:47.130Z,12.10
2022-12-18T08:46:19.304Z,12.87
2022-12-18T08:48:47.216Z,13.93
2022-12-18T08:51:15.062Z,13.90
2022-12-18T08:53:42.705Z,15.77
2022-12-18T08:56:11.696Z,14.67
2022-12-18T08:58:39.154Z,12.73
2022-12-18T09:01:07.599Z,13.33
2022-12-18T09:03:35.078Z,11.20
2022-12-18T09:06:02.751Z,11.00
2022-12-18T09:08:30.271Z,11.90
2022-12-18T09:10:58.044Z,12.57
2022-12-18T09:13:26.777Z,12.07
2022-12-18T09:15:54.998Z,12.00
2022-12-18T09:18:23.278Z,12.47
2022-12-18T09:20:51.219Z,12.20
2022-12-18T09:23:18.747Z,16.70
2022-12-18T09:25:46.194Z,12.90
2022-12-18T09:28:17.133Z,15.20
2022-12-18T09:30:47.163Z,13.67
2022-12-18T09:33:15.075Z,15.50
2022-12-18T09:35:43.882Z,10.20
2022-12-18T09:38:13.497Z,12.23
2022-12-18T09:40:43.629Z,12.00
2022-12-18T09:43:15.754Z,12.83
2022-12-18T09:45:46.536Z,9.10
2022-12-18T09:48:17.930Z,10.37
2022-12-18T09:50:46.252Z,11.10
2022-12-18T09:53:16.988Z,10.70
2022-12-18T09:55:46.864Z,14.30
2022-12-18T09:58:17.602Z,10.27
2022-12-18T10:00:45.264Z,11.57
2022-12-18T10:03:14.278Z,12.77
2022-12-18T10:05:47.761Z,10.43
2022-12-18T10:08:18.175Z,12.70
2022-12-18T10:10:48.794Z,14.23
2022-12-18T10:13:21.585Z,12.77
2022-12-18T10:15:59.077Z,14.93
2022-12-18T10:18:34.897Z,12.47
2022-12-18T10:21:06.090Z,12.47
2022-12-18T10:23:36.169Z,13.30
2022-12-18T10:26:04.702Z,12.30
2022-12-18T10:28:32.696Z,11.60
2022-12-18T10:31:00.434Z,16.90
2022-12-18T10:33:30.623Z,12.03
2022-12-18T10:35:58.313Z,11.30
2022-12-18T10:38:28.660Z,20.00
2022-12-18T10:40:57.463Z,14.73
2022-12-18T10:43:26.544Z,15.47
2022-12-18T10:46:01.146Z,11.60
2022-12-18T10:48:28.823Z,10.97
2022-12-18T10:51:13.312Z,11.03
2022-12-18T10:53:43.723Z,13.03
2022-12-18T10:56:11.433Z,10.67
2022-12-18T10:58:39.849Z,10.90
2022-12-18T11:01:12.593Z,10.50
2022-12-18T11:03:41.622Z,13.33
2022-12-18T11:06:11.413Z,12.70
2022-12-18T11:08:39.506Z,9.33
2022-12-18T11:11:20.657Z,12.10
2022-12-18T11:13:54.138Z,11.80
2022-12-18T11:16:22.046Z,12.20
2022-12-18T11:18:49.500Z,14.53
2022-12-18T11:21:16.988Z,13.20
2022-12-18T11:23:48.589Z,15.57
2022-12-18T11:26:17.400Z,14.33
2022-12-18T11:28:46.315Z,8.03
2022-12-18T11:31:21.878Z,13.93
2022-12-18T11:34:26.850Z,13.13
2022-12-18T11:36:43.253Z,15.40
2022-12-18T11:39:15.094Z,10.40
2022-12-18T11:42:06.560Z,13.20
2022-12-18T11:44:37.711Z,11.03
2022-12-18T11:47:07.889Z,16.57
2022-12-18T11:49:36.373Z,12.70
2022-12-18T11:52:06.531Z,12.47
2022-12-18T11:54:33.924Z,12.37
2022-12-18T11:57:05.209Z,13.70
2022-12-18T11:59:36.639Z,16.40
2022-12-18T12:02:13.002Z,15.17
2022-12-18T12:05:03.220Z,12.80
2022-12-18T12:07:37.639Z,15.80
2022-12-18T12:10:10.184Z,12.93
2022-12-18T12:12:50.292Z,14.97
2022-12-18T12:15:25.371Z,17.27
2022-12-18T12:17:55.908Z,14.93
2022-12-18T12:20:25.984Z,12.90
2022-12-18T12:22:56.989Z,16.33
2022-12-18T12:25:30.710Z,18.17
2022-12-18T12:28:05.655Z,16.40
2022-12-18T12:30:38.629Z,17.10
2022-12-18T12:33:16.532Z,17.90
2022-12-18T12:35:48.766Z,19.93
2022-12-18T12:38:18.335Z,22.17
2022-12-18T12:40:56.677Z,17.60
2022-12-18T12:43:32.944Z,19.33
2022-12-18T12:46:04.927Z,13.77
2022-12-18T12:48:38.751Z,18.53
2022-12-18T12:51:11.666Z,18.17
2022-12-18T12:53:40.533Z,20.20
2022-12-18T12:56:10.488Z,20.33
2022-12-18T12:58:43.929Z,16.63
2022-12-18T13:01:18.507Z,21.90
2022-12-18T13:03:56.141Z,19.47
2022-12-18T13:06:29.864Z,19.73
2022-12-18T13:08:58.487Z,17.30
2022-12-18T13:11:54.833Z,19.87
2022-12-18T13:14:31.068Z,18.37
2022-12-18T13:17:18.127Z,22.67
2022-12-18T13:19:46.112Z,17.23
2022-12-18T13:22:23.787Z,20.47
2022-12-18T13:24:51.290Z,17.07
2022-12-18T13:27:38.806Z,19.50
2022-12-18T13:30:34.482Z,18.33
2022-12-18T13:33:17.536Z,18.43
2022-12-18T13:35:53.866Z,16.80
2022-12-18T13:38:22.717Z,17.80
2022-12-18T13:40:57.100Z,19.10
2022-12-18T13:43:26.203Z,22.00
2022-12-18T13:46:01.564Z,24.17
2022-12-18T13:48:29.516Z,20.77
2022-12-18T13:51:00.185Z,16.87
2022-12-18T13:53:29.646Z,17.90
2022-12-18T13:55:57.111Z,20.37
2022-12-18T13:58:24.644Z,23.63
2022-12-18T14:00:52.341Z,26.13
2022-12-18T14:03:22.415Z,21.93
2022-12-18T14:05:55.276Z,19.73
2022-12-18T14:08:27.258Z,21.20
2022-12-18T14:10:55.143Z,20.00
2022-12-18T14:13:25.299Z,17.27
2022-12-18T14:15:53.153Z,17.27
2022-12-18T14:18:25.190Z,20.57
2022-12-18T14:20:53.520Z,20.30
2022-12-18T14:23:29.419Z,22.20
2022-12-18T14:26:00.798Z,20.83
2022-12-18T14:28:31.341Z,21.13
2022-12-18T14:30:58.919Z,20.20
2022-12-18T14:33:27.153Z,22.40
2022-12-18T14:35:56.041Z,22.20
2022-12-18T14:38:24.741Z,20.67
2022-12-18T14:41:00.562Z,20.20
2022-12-18T14:43:28.667Z,22.97
2022-12-18T14:45:56.349Z,23.93
2022-12-18T14:48:32.467Z,24.70
2022-12-18T14:51:04.618Z,19.97
2022-12-18T14:53:36.601Z,20.07
2022-12-18T14:56:06.106Z,21.03
2022-12-18T14:58:33.570Z,21.93
2022-12-18T15:01:01.243Z,20.90
2022-12-18T15:03:28.890Z,22.30
2022-12-18T15:05:56.488Z,23.03
2022-12-18T15:08:32.500Z,22.97
2022-12-18T15:11:00.410Z,21.63
2022-12-18T15:13:30.456Z,22.43
2022-12-18T15:15:58.619Z,24.70
2022-12-18T15:18:29.823Z,26.47
2022-12-18T15:21:00.018Z,20.07
2022-12-18T15:23:29.256Z,24.87
2022-12-18T15:25:57.730Z,23.00
2022-12-18T15:28:27.023Z,24.13
2022-12-18T15:31:22.118Z,22.90
2022-12-18T15:34:04.044Z,21.33
2022-12-18T15:36:31.565Z,23.77
2022-12-18T15:38:59.282Z,23.40
2022-12-18T15:41:33.436Z,25.93
2022-12-18T15:44:01.858Z,22.07
2022-12-18T15:46:32.380Z,25.40
2022-12-18T15:49:02.773Z,23.60
2022-12-18T15:51:31.545Z,26.60
2022-12-18T15:54:00.866Z,27.10
2022-12-18T15:56:46.043Z,22.37
2022-12-18T15:59:14.869Z,26.30
2022-12-18T16:01:44.486Z,25.23
2022-12-18T16:04:12.817Z,27.03
2022-12-18T16:07:12.677Z,24.90
2022-12-18T16:09:27.813Z,27.97
2022-12-18T16:11:55.264Z,29.63
2022-12-18T16:14:23.817Z,28.30
2022-12-18T16:16:55.121Z,29.60
2022-12-18T16:19:23.125Z,29.20
2022-12-18T16:21:51.619Z,28.30
2022-12-18T16:24:19.811Z,25.90
2022-12-18T16:26:47.243Z,26.80
2022-12-18T16:29:14.676Z,25.80
2022-12-18T16:31:42.393Z,27.40
2022-12-18T16:34:15.649Z,27.20
2022-12-18T16:36:43.115Z,26.27
2022-12-18T16:39:10.486Z,26.67
2022-12-18T16:41:37.913Z,25.53
2022-12-18T16:44:05.642Z,30.57
2022-12-18T16:46:33.131Z,29.30
2022-12-18T16:49:01.713Z,31.00
2022-12-18T16:51:30.453Z,23.83
2022-12-18T16:53:58.420Z,26.50
2022-12-18T16:56:26.088Z,30.67
2022-12-18T16:58:53.943Z,29.20
2022-12-18T17:01:21.732Z,31.03
2022-12-18T17:03:53.266Z,29.13
2022-12-18T17:06:21.072Z,34.53
2022-12-18T17:08:50.302Z,28.53
2022-12-18T17:11:18.066Z,28.90
2022-12-18T17:13:46.036Z,30.97
2022-12-18T17:16:13.765Z,30.73
2022-12-18T17:18:41.204Z,32.60
2022-12-18T17:21:09.592Z,28.60
2022-12-18T17:23:38.340Z,29.57
2022-12-18T17:26:08.238Z,29.03
2022-12-18T17:28:36.028Z,30.37
2022-12-18T17:31:03.530Z,30.17
2022-12-18T17:33:31.168Z,27.33
2022-12-18T17:35:59.586Z,30.97
2022-12-18T17:38:27.589Z,27.97
2022-12-18T17:40:55.011Z,22.20
2022-12-18T17:43:24.042Z,31.77
2022-12-18T17:45:51.445Z,32.60
2022-12-18T17:48:18.951Z,30.07
2022-12-18T17:50:46.960Z,30.13
2022-12-18T17:53:14.519Z,29.47
2022-12-18T17:55:42.110Z,32.43
2022-12-18T17:58:09.648Z,30.43
2022-12-18T18:00:39.993Z,31.10
2022-12-18T18:03:07.716Z,27.80
2022-12-18T18:05:35.320Z,32.70
2022-12-18T18:08:02.839Z,35.90
2022-12-18T18:10:30.263Z,30.97
2022-12-18T18:13:16.710Z,30.43
2022-12-18T18:15:45.809Z,34.57
2022-12-18T18:18:13.249Z,34.40
2022-12-18T18:20:42.924Z,32.83
2022-12-18T18:23:10.361Z,34.50
2022-12-18T18:25:37.817Z,34.17
2022-12-18T18:28:05.437Z,37.00
2022-12-18T18:30:32.933Z,30.10
2022-12-18T18:33:01.698Z,30.37
2022-12-18T18:35:52.727Z,32.17
2022-12-18T18:38:16.747Z,35.00
2022-12-18T18:40:44.598Z,32.33
2022-12-18T18:43:12.158Z,32.60
2022-12-18T18:45:39.723Z,34.07
2022-12-18T18:48:10.389Z,30.27
2022-12-18T18:50:37.909Z,32.17
2022-12-18T18:53:05.409Z,33.30
2022-12-18T18:55:34.321Z,32.37
2022-12-18T18:58:01.803Z,35.50
2022-12-18T19:00:30.946Z,36.70
2022-12-18T19:03:00.809Z,40.70
2022-12-18T19:05:31.852Z,31.30
2022-12-18T19:07:59.402Z,31.77
2022-12-18T19:10:26.917Z,32.60
2022-12-18T19:13:11.764Z,30.10
2022-12-18T19:15:39.271Z,28.50
2022-12-18T19:18:07.074Z,31.33
2022-12-18T19:20:36.290Z,28.93
2022-12-18T19:23:04.013Z,28.37
2022-12-18T19:25:40.411Z,31.97
2022-12-18T19:28:16.021Z,35.27
2022-12-18T19:30:50.297Z,30.70
2022-12-18T19:33:41.971Z,34.43
2022-12-18T19:36:12.899Z,32.10
2022-12-18T19:38:43.024Z,30.30
2022-12-18T19:41:13.266Z,30.07
2022-12-18T19:43:41.582Z,31.13
2022-12-18T19:46:10.506Z,33.70
2022-12-18T19:48:38.461Z,32.53
2022-12-18T19:51:07.545Z,32.30
2022-12-18T19:53:36.611Z,31.00
2022-12-18T19:56:06.028Z,29.00
2022-12-18T19:58:33.523Z,34.50
2022-12-18T20:01:01.070Z,26.73
2022-12-18T20:03:32.608Z,28.97
2022-12-18T20:06:08.714Z,32.30
2022-12-18T20:08:37.585Z,34.57
2022-12-18T20:11:05.305Z,33.30
2022-12-18T20:13:32.915Z,28.80
2022-12-18T20:16:00.899Z,32.00
2022-12-18T20:18:28.376Z,33.63
2022-12-18T20:20:56.291Z,35.37
2022-12-18T20:23:24.718Z,30.10
2022-12-18T20:25:54.739Z,33.60
2022-12-18T20:28:22.438Z,30.10
2022-12-18T20:30:50.240Z,35.40
2022-12-18T20:33:17.825Z,30.17
2022-12-18T20:35:45.331Z,35.33
2022-12-18T20:38:13.620Z,35.20
2022-12-18T20:40:42.070Z,31.20
2022-12-18T20:43:16.846Z,30.53
2022-12-18T20:45:44.795Z,33.23
2022-12-18T20:48:14.485Z,34.50
2022-12-18T20:50:43.367Z,30.20
2022-12-18T20:53:10.913Z,28.30
2022-12-18T20:55:42.076Z,34.53
2022-12-18T20:58:10.959Z,33.60
2022-12-18T21:00:38.558Z,34.20
2022-12-18T21:03:06.229Z,31.50
2022-12-18T21:05:33.729Z,34.87
2022-12-18T21:08:02.160Z,33.90
2022-12-18T21:10:29.674Z,31.43
2022-12-18T21:13:01.539Z,32.17
2022-12-18T21:15:35.931Z,28.33
2022-12-18T21:18:03.407Z,33.03
2022-12-18T21:20:31.028Z,29.93
2022-12-18T21:23:03.976Z,32.80
2022-12-18T21:25:44.311Z,29.00
2022-12-18T21:28:13.318Z,28.50
2022-12-18T21:30:42.229Z,31.80
2022-12-18T21:33:09.707Z,29.50
2022-12-18T21:35:37.102Z,35.50
2022-12-18T21:38:04.577Z,30.97
2022-12-18T21:40:33.316Z,33.00
2022-12-18T21:43:18.659Z,34.00
2022-12-18T21:45:47.472Z,29.83
2022-12-18T21:48:15.069Z,32.37
2022-12-18T21:50:42.522Z,28.87
2022-12-18T21:53:09.989Z,30.83
2022-12-18T21:55:37.430Z,32.93
2022-12-18T21:58:04.873Z,32.83
2022-12-18T22:00:32.343Z,31.77
2022-12-18T22:03:17.645Z,30.97
2022-12-18T22:05:46.602Z,29.60
2022-12-18T22:08:17.087Z,31.83
2022-12-18T22:10:44.676Z,30.77
2022-12-18T22:13:12.233Z,35.50
2022-12-18T22:15:39.680Z,32.40
2022-12-18T22:18:14.422Z,33.60
2022-12-18T22:20:41.940Z,28.90
2022-12-18T22:23:10.512Z,36.80
2022-12-18T22:25:39.899Z,40.20
2022-12-18T22:28:25.289Z,29.90
2022-12-18T22:30:59.602Z,34.23
2022-12-18T22:33:28.790Z,32.43
2022-12-18T22:35:56.210Z,29.20
2022-12-18T22:38:23.687Z,32.50
2022-12-18T22:40:51.101Z,34.63
2022-12-18T22:43:18.537Z,34.97
2022-12-18T22:45:47.357Z,34.63
2022-12-18T22:48:14.844Z,33.53
2022-12-18T22:50:44.775Z,30.37
2022-12-18T22:53:12.396Z,32.70
2022-12-18T22:55:39.860Z,36.27
2022-12-18T22:58:07.347Z,33.10
2022-12-18T23:00:34.897Z,34.93
2022-12-18T23:03:02.447Z,32.43
2022-12-18T23:05:30.664Z,32.80
2022-12-18T23:07:59.666Z,33.53
2022-12-18T23:10:28.131Z,29.47
2022-12-18T23:12:55.595Z,32.30
2022-12-18T23:15:28.273Z,36.13
2022-12-18T23:17:56.248Z,32.60
2022-12-18T23:20:23.865Z,32.03
2022-12-18T23:22:52.849Z,34.07
2022-12-18T23:25:21.940Z,35.47
2022-12-18T23:27:49.422Z,36.70
2022-12-18T23:30:16.914Z,37.50
2022-12-18T23:32:44.339Z,34.33
2022-12-18T23:35:14.275Z,37.70
2022-12-18T23:37:58.714Z,32.70
2022-12-18T23:40:29.257Z,36.97
2022-12-18T23:42:56.773Z,34.50
2022-12-18T23:45:24.190Z,39.03
2022-12-18T23:47:51.820Z,32.20
2022-12-18T23:50:19.327Z,37.50
2022-12-18T23:52:50.979Z,35.17
2022-12-18T23:55:18.915Z,34.80
2022-12-18T23:57:47.717Z,37.40
